Terminal Aerodrome Forecast
Issued by NWS

Home | Current Version | Previous Version | Text Only | Print | Product List | Glossary On
Versions: 1 2 3 4 5 6 7 8 9 10 11 12 13
000
FTUS42 KTBW 191518 AAA
TAFRSW
TAF AMD
KRSW 191518Z 1915/2012 03005KT P6SM SCT025 BKN090
      TEMPO 1915/1918 BKN025
     FM191900 34008KT P6SM VCSH SCT030 BKN050
     FM200300 06005KT P6SM FEW050 SCT080=

USA.gov is the U.S. government's official web portal to all federal, state and local government web resources and services.